Time;durP1;ratioP1;P1;durP2;ratioP2;P2;SDS_P1;SDS_P2;PMS_P1;PMS_P2;Temp;Humidity;BMP_temperature;BMP_pressure;BME280_temperature;BME280_humidity;BME280_pressure;Samples;Min_cycle;Max_cycle;Signal;HPM_P1;HPM_P2
2022/09/15 00:00:22;;;;;;;6.20;5.20;;;;;;;15.66;100.00;95372.42;108067;1265;27232;-77
2022/09/15 00:03:13;;;;;;;5.90;5.30;;;;;;;15.73;100.00;95370.47;108125;1267;25650;-76
2022/09/15 00:05:47;;;;;;;6.80;6.10;;;;;;;15.81;100.00;95364.82;108109;1271;22649;-77
2022/09/15 00:08:18;;;;;;;7.10;5.20;;;;;;;15.87;100.00;95352.44;108087;1268;25957;-77
2022/09/15 00:10:51;;;;;;;5.90;5.30;;;;;;;15.89;100.00;95348.13;108110;1267;25373;-76
2022/09/15 00:13:23;;;;;;;5.90;5.40;;;;;;;15.90;100.00;95339.77;108132;1268;24289;-76
2022/09/15 00:15:54;;;;;;;6.60;5.20;;;;;;;15.92;100.00;95341.42;108080;1271;24209;-76
2022/09/15 00:18:28;;;;;;;7.50;5.30;;;;;;;15.91;100.00;95347.66;108056;1268;24163;-76
2022/09/15 00:20:59;;;;;;;7.10;5.50;;;;;;;15.90;100.00;95342.95;108110;1268;22647;-76
2022/09/15 00:23:30;;;;;;;7.60;5.60;;;;;;;15.90;100.00;95336.85;108058;1270;23935;-77
2022/09/15 00:26:01;;;;;;;6.10;5.10;;;;;;;15.91;100.00;95333.54;108114;1268;25153;-76
2022/09/15 00:28:33;;;;;;;7.90;5.70;;;;;;;15.91;100.00;95330.56;108009;1268;37484;-77
2022/09/15 00:31:07;;;;;;;6.80;5.90;;;;;;;15.91;100.00;95327.57;108093;1271;22576;-77
2022/09/15 00:33:39;;;;;;;6.10;5.60;;;;;;;15.93;100.00;95325.20;108165;1268;24335;-77
2022/09/15 00:36:12;;;;;;;6.40;5.80;;;;;;;15.96;100.00;95319.00;108100;1271;23820;-77
2022/09/15 00:38:44;;;;;;;6.70;6.10;;;;;;;16.01;100.00;95316.75;108041;1270;27244;-77
2022/09/15 00:41:18;;;;;;;6.40;5.80;;;;;;;16.06;100.00;95314.21;108074;1270;25370;-76
2022/09/15 00:43:53;;;;;;;7.60;5.50;;;;;;;16.08;100.00;95316.02;108087;1271;22554;-77
2022/09/15 00:46:27;;;;;;;5.90;5.30;;;;;;;16.11;100.00;95318.52;108121;1268;22769;-77
2022/09/15 00:49:06;;;;;;;5.70;5.10;;;;;;;16.12;100.00;95319.70;108075;1267;26499;-76
2022/09/15 00:51:43;;;;;;;5.70;5.20;;;;;;;16.16;100.00;95311.54;108144;1267;22536;-77
2022/09/15 00:54:18;;;;;;;6.70;5.20;;;;;;;16.17;100.00;95305.75;108119;1268;25117;-77
2022/09/15 00:56:53;;;;;;;6.90;5.20;;;;;;;16.17;100.00;95299.78;108112;1268;25023;-77
2022/09/15 00:59:28;;;;;;;7.10;5.40;;;;;;;16.16;100.00;95288.08;108040;1268;29259;-77
2022/09/15 01:02:05;;;;;;;7.20;5.50;;;;;;;16.16;100.00;95285.71;108114;1268;22558;-77
2022/09/15 01:04:37;;;;;;;5.80;4.80;;;;;;;16.17;100.00;95285.05;108147;1268;22657;-77
2022/09/15 01:07:11;;;;;;;5.20;4.70;;;;;;;16.19;100.00;95281.77;108139;1268;24268;-77
2022/09/15 01:09:49;;;;;;;5.60;4.90;;;;;;;16.19;100.00;95276.48;108083;1269;28883;-77
2022/09/15 01:12:21;;;;;;;5.60;5.00;;;;;;;16.17;100.00;95266.88;108165;1268;22568;-77
2022/09/15 01:14:53;;;;;;;5.20;4.70;;;;;;;16.15;100.00;95270.27;108092;1270;22652;-77
2022/09/15 01:17:40;;;;;;;5.20;4.80;;;;;;;16.13;100.00;95266.77;108133;1269;22556;-77
2022/09/15 01:21:08;;;;;;;6.10;4.90;;;;;;;16.11;100.00;95257.48;108040;1268;31642;-77
2022/09/15 01:24:05;;;;;;;6.30;4.50;;;;;;;16.08;100.00;95251.61;107838;1274;22533;-77
2022/09/15 01:26:54;;;;;;;7.10;5.30;;;;;;;16.08;100.00;95244.88;107816;1274;26789;-77
2022/09/15 01:29:52;;;;;;;5.60;4.90;;;;;;;16.09;100.00;95248.98;107979;1268;33963;-77
2022/09/15 01:35:27;;;;;;;6.80;4.80;;;;;;;16.17;100.00;95265.27;108119;1268;23268;-77
2022/09/15 01:38:04;;;;;;;4.60;4.10;;;;;;;16.22;100.00;95271.81;108111;1268;22588;-77
2022/09/15 01:40:42;;;;;;;5.70;4.00;;;;;;;16.28;100.00;95267.58;106613;1271;1870532;-77
2022/09/15 01:43:15;;;;;;;5.10;4.00;;;;;;;16.28;100.00;95265.30;108048;1271;23969;-77
2022/09/15 01:45:50;;;;;;;4.90;3.80;;;;;;;16.30;100.00;95255.87;107973;1271;23864;-77
2022/09/15 01:48:26;;;;;;;5.30;3.90;;;;;;;16.35;100.00;95255.92;107929;1271;25593;-76
2022/09/15 01:51:01;;;;;;;5.00;4.10;;;;;;;16.38;100.00;95253.92;107996;1271;22654;-77
2022/09/15 01:53:33;;;;;;;4.70;3.50;;;;;;;16.40;100.00;95250.67;107977;1271;22549;-77
2022/09/15 01:56:09;;;;;;;4.00;3.40;;;;;;;16.43;100.00;95252.64;108022;1271;22718;-77
2022/09/15 01:58:42;;;;;;;4.40;3.50;;;;;;;16.47;100.00;95247.75;107909;1271;26408;-77
2022/09/15 02:01:19;;;;;;;4.00;3.60;;;;;;;16.49;100.00;95248.74;107994;1271;22651;-77
2022/09/15 02:03:54;;;;;;;4.30;3.90;;;;;;;16.48;100.00;95249.19;108017;1271;22522;-77
2022/09/15 02:06:36;;;;;;;3.90;3.10;;;;;;;16.48;100.00;95244.67;108002;1271;23047;-77
2022/09/15 02:09:12;;;;;;;4.50;3.40;;;;;;;16.48;100.00;95244.91;107902;1271;26546;-77
2022/09/15 02:11:52;;;;;;;6.00;3.50;;;;;;;16.50;100.00;95244.23;108027;1271;22529;-77
2022/09/15 02:14:35;;;;;;;5.20;3.40;;;;;;;16.49;100.00;95241.79;107999;1271;22538;-77
2022/09/15 02:17:06;;;;;;;4.20;3.80;;;;;;;16.46;100.00;95240.71;107995;1270;23838;-77
2022/09/15 02:19:41;;;;;;;5.10;3.80;;;;;;;16.42;100.00;95238.10;107972;1271;28642;-77
2022/09/15 02:22:22;;;;;;;4.40;3.40;;;;;;;16.39;100.00;95236.28;108080;1268;22708;-77
2022/09/15 02:25:01;;;;;;;4.80;3.40;;;;;;;16.37;100.00;95235.30;108014;1268;23877;-77
2022/09/15 02:27:38;;;;;;;4.00;3.00;;;;;;;16.33;100.00;95237.38;108064;1268;22542;-77
2022/09/15 02:30:13;;;;;;;4.30;3.20;;;;;;;16.31;100.00;95244.73;108018;1268;31782;-77
2022/09/15 02:32:52;;;;;;;3.50;3.00;;;;;;;16.31;100.00;95237.62;108121;1268;22565;-77
2022/09/15 02:35:27;;;;;;;4.40;3.40;;;;;;;16.31;100.00;95233.04;108072;1267;22523;-77
2022/09/15 02:37:58;;;;;;;4.10;3.30;;;;;;;16.33;100.00;95231.41;108121;1268;22548;-77
2022/09/15 02:40:31;;;;;;;3.90;3.50;;;;;;;16.37;100.00;95227.05;108018;1268;27689;-77
2022/09/15 02:43:04;;;;;;;4.00;3.60;;;;;;;16.37;100.00;95232.58;108065;1268;22565;-77
2022/09/15 02:45:35;;;;;;;4.30;3.30;;;;;;;16.34;100.00;95227.86;108089;1268;23000;-77
2022/09/15 02:48:08;;;;;;;4.20;3.40;;;;;;;16.31;100.00;95224.86;108098;1268;22564;-77
2022/09/15 02:50:40;;;;;;;3.80;3.50;;;;;;;16.28;100.00;95223.48;108029;1268;30801;-77
2022/09/15 02:53:11;;;;;;;5.90;3.60;;;;;;;16.27;100.00;95218.80;108113;1268;22703;-77
2022/09/15 02:55:44;;;;;;;3.70;3.30;;;;;;;16.25;100.00;95219.77;108071;1268;22617;-76
2022/09/15 02:58:15;;;;;;;3.20;2.90;;;;;;;16.25;100.00;95219.09;108114;1268;23105;-77
2022/09/15 03:00:47;;;;;;;3.40;3.10;;;;;;;16.25;100.00;95219.24;108113;1268;22545;-77
2022/09/15 03:03:20;;;;;;;4.00;2.90;;;;;;;16.26;100.00;95219.86;108093;1268;22562;-76
2022/09/15 03:06:15;;;;;;;4.00;3.20;;;;;;;16.28;100.00;95215.23;108083;1268;24191;-77
2022/09/15 03:08:50;;;;;;;3.40;3.10;;;;;;;16.29;100.00;95216.34;108031;1268;33459;-76
2022/09/15 03:11:23;;;;;;;3.10;2.70;;;;;;;16.29;100.00;95223.23;108131;1268;26478;-77
2022/09/15 03:13:57;;;;;;;3.20;2.90;;;;;;;16.30;100.00;95223.91;108115;1268;22525;-77
2022/09/15 03:16:33;;;;;;;3.50;2.80;;;;;;;16.29;100.00;95223.14;108094;1268;25250;-76
2022/09/15 03:19:05;;;;;;;2.80;2.60;;;;;;;16.30;100.00;95219.80;108056;1268;29418;-77
2022/09/15 03:21:37;;;;;;;3.20;2.90;;;;;;;16.29;100.00;95221.23;108102;1268;24029;-77
2022/09/15 03:24:08;;;;;;;4.50;3.20;;;;;;;16.29;100.00;95224.29;108103;1268;22552;-77
2022/09/15 03:26:39;;;;;;;4.50;2.90;;;;;;;16.29;100.00;95222.90;108097;1268;22561;-77
2022/09/15 03:29:11;;;;;;;4.40;2.90;;;;;;;16.28;100.00;95222.59;108056;1268;25360;-77
2022/09/15 03:31:42;;;;;;;4.40;3.00;;;;;;;16.29;100.00;95218.77;108098;1267;22643;-77
2022/09/15 03:34:13;;;;;;;3.80;2.60;;;;;;;16.30;100.00;95215.29;108107;1268;22654;-76
2022/09/15 03:36:45;;;;;;;3.20;2.90;;;;;;;16.30;100.00;95215.23;108111;1268;22529;-77
2022/09/15 03:39:16;;;;;;;3.40;3.10;;;;;;;16.30;100.00;95213.76;108054;1268;36755;-77
2022/09/15 03:41:50;;;;;;;3.40;3.00;;;;;;;16.28;100.00;95206.06;108117;1268;22528;-77
2022/09/15 03:44:21;;;;;;;3.00;2.50;;;;;;;16.27;100.00;95203.01;108138;1266;23960;-77
2022/09/15 03:46:52;;;;;;;3.40;2.70;;;;;;;16.29;100.00;95195.93;108111;1268;25774;-77
2022/09/15 03:49:24;;;;;;;2.60;2.40;;;;;;;16.30;100.00;95192.36;108004;1268;31637;-76
2022/09/15 03:51:55;;;;;;;2.80;2.30;;;;;;;16.29;100.00;95185.30;108117;1267;22618;-77
2022/09/15 03:54:29;;;;;;;4.00;2.70;;;;;;;16.26;100.00;95189.23;108084;1268;23507;-77
2022/09/15 03:57:00;;;;;;;2.60;2.40;;;;;;;16.25;100.00;95185.84;108133;1268;22704;-77
2022/09/15 03:59:32;;;;;;;2.90;2.30;;;;;;;16.24;100.00;95187.50;108078;1267;31654;-76
2022/09/15 04:02:03;;;;;;;3.30;2.40;;;;;;;16.24;100.00;95190.40;108088;1268;22541;-77
2022/09/15 04:04:35;;;;;;;2.30;2.10;;;;;;;16.27;100.00;95188.86;108112;1268;23884;-77
2022/09/15 04:07:07;;;;;;;2.70;2.20;;;;;;;16.31;100.00;95187.65;108124;1267;22548;-77
2022/09/15 04:09:38;;;;;;;3.10;2.20;;;;;;;16.33;100.00;95183.20;107958;1269;34122;-76
2022/09/15 04:12:10;;;;;;;2.30;2.10;;;;;;;16.32;100.00;95178.73;108023;1271;22546;-77
2022/09/15 04:14:41;;;;;;;2.30;2.10;;;;;;;16.32;100.00;95183.40;107962;1271;22732;-76
2022/09/15 04:17:14;;;;;;;3.30;2.00;;;;;;;16.30;100.00;95185.71;107946;1271;22736;-77
2022/09/15 04:19:46;;;;;;;2.20;2.00;;;;;;;16.32;100.00;95193.02;107896;1271;25791;-77
2022/09/15 04:22:17;;;;;;;3.20;2.00;;;;;;;16.31;100.00;95190.40;107920;1271;22532;-77
2022/09/15 04:24:49;;;;;;;3.00;2.10;;;;;;;16.30;100.00;95184.65;107961;1270;24062;-77
2022/09/15 04:27:21;;;;;;;1.80;1.70;;;;;;;16.37;100.00;95185.57;107982;1270;22786;-77
2022/09/15 04:29:53;;;;;;;3.80;2.50;;;;;;;16.45;100.00;95191.83;107918;1270;31180;-77
2022/09/15 04:32:25;;;;;;;2.20;1.90;;;;;;;16.42;100.00;95189.11;107959;1270;22558;-77
2022/09/15 04:34:57;;;;;;;3.00;1.80;;;;;;;16.41;100.00;95199.26;107992;1270;22554;-77
2022/09/15 04:37:28;;;;;;;2.50;1.70;;;;;;;16.47;100.00;95188.30;107975;1270;26756;-77
2022/09/15 04:40:00;;;;;;;3.10;2.10;;;;;;;16.48;100.00;95187.95;107904;1271;26223;-77
2022/09/15 04:42:32;;;;;;;2.30;1.90;;;;;;;16.47;100.00;95184.77;107916;1271;25314;-77
2022/09/15 04:45:07;;;;;;;3.40;2.00;;;;;;;16.45;100.00;95186.10;108004;1271;26404;-77
2022/09/15 04:47:39;;;;;;;2.20;1.80;;;;;;;16.46;100.00;95196.77;107985;1270;22559;-77
2022/09/15 04:50:11;;;;;;;2.90;2.00;;;;;;;16.68;100.00;95192.59;107970;1270;35172;-77
2022/09/15 04:52:42;;;;;;;2.00;1.80;;;;;;;17.07;100.00;95194.89;107981;1270;24029;-77
2022/09/15 04:55:17;;;;;;;3.30;1.80;;;;;;;17.09;100.00;95192.95;108040;1270;22533;-77
2022/09/15 04:57:48;;;;;;;2.10;1.90;;;;;;;17.55;100.00;95194.30;108039;1268;22571;-77
2022/09/15 05:00:20;;;;;;;3.70;1.90;;;;;;;17.68;100.00;95197.73;107967;1270;26314;-77
2022/09/15 05:02:51;;;;;;;2.50;1.70;;;;;;;17.63;100.00;95200.80;107988;1271;22571;-77
2022/09/15 05:05:23;;;;;;;2.10;1.30;;;;;;;17.58;100.00;95203.91;108058;1270;23184;-77
2022/09/15 05:07:54;;;;;;;2.80;1.70;;;;;;;17.66;100.00;95200.08;108014;1270;22563;-77
2022/09/15 05:10:26;;;;;;;1.90;1.40;;;;;;;17.71;100.00;95196.80;107974;1270;29346;-77
2022/09/15 05:12:57;;;;;;;1.20;1.10;;;;;;;18.46;100.00;95200.56;108032;1268;24206;-77
2022/09/15 05:15:29;;;;;;;1.70;1.30;;;;;;;19.41;99.01;95198.17;107980;1270;22555;-78
2022/09/15 05:18:01;;;;;;;2.60;1.10;;;;;;;20.20;97.12;95201.17;107994;1270;22552;-78
2022/09/15 05:20:33;;;;;;;3.90;1.20;;;;;;;21.02;94.35;95202.42;107973;1270;29854;-77
2022/09/15 05:23:06;;;;;;;1.30;1.20;;;;;;;21.36;90.20;95198.33;108051;1270;22528;-77
2022/09/15 05:25:38;;;;;;;2.30;1.30;;;;;;;20.73;88.24;95199.67;108040;1270;23844;-77
2022/09/15 05:28:09;;;;;;;2.40;1.30;;;;;;;20.15;88.57;95196.15;108032;1271;22538;-77
2022/09/15 05:30:42;;;;;;;2.40;1.30;;;;;;;19.80;89.25;95197.58;107927;1270;30348;-77
2022/09/15 05:33:14;;;;;;;1.70;1.20;;;;;;;19.46;89.57;95197.93;108028;1270;24228;-77
2022/09/15 05:35:53;;;;;;;2.30;1.30;;;;;;;19.17;90.17;95191.10;108036;1270;22532;-77
2022/09/15 05:38:25;;;;;;;2.00;1.20;;;;;;;18.92;90.79;95182.70;107969;1270;25186;-77
2022/09/15 05:41:01;;;;;;;2.30;1.40;;;;;;;18.81;90.73;95183.70;108058;1271;22542;-78
2022/09/15 05:43:34;;;;;;;2.60;1.60;;;;;;;18.47;90.71;95188.15;108037;1270;23850;-77
2022/09/15 05:46:07;;;;;;;1.30;1.20;;;;;;;18.27;91.34;95179.30;108039;1270;22998;-77
2022/09/15 05:48:39;;;;;;;1.80;1.50;;;;;;;18.12;91.64;95178.08;107930;1270;26842;-77
2022/09/15 05:51:11;;;;;;;2.10;1.60;;;;;;;18.00;91.70;95176.52;108026;1271;22581;-78
2022/09/15 05:53:42;;;;;;;2.90;1.60;;;;;;;17.93;92.32;95174.11;108051;1270;22543;-77
2022/09/15 05:56:15;;;;;;;2.40;2.00;;;;;;;17.85;92.23;95175.14;107966;1270;22548;-77
2022/09/15 05:58:48;;;;;;;2.30;1.70;;;;;;;17.81;92.18;95188.48;107948;1270;36013;-78
2022/09/15 06:01:21;;;;;;;2.10;1.70;;;;;;;17.79;92.10;95190.98;107981;1270;22552;-78
2022/09/15 06:03:53;;;;;;;2.60;1.60;;;;;;;17.79;91.98;95196.49;108015;1270;22519;-78
2022/09/15 06:06:26;;;;;;;3.30;2.00;;;;;;;17.77;92.42;95197.39;107980;1270;24237;-77
2022/09/15 06:09:00;;;;;;;1.80;1.50;;;;;;;17.77;92.14;95187.66;107904;1271;30099;-77
2022/09/15 06:11:33;;;;;;;2.70;1.80;;;;;;;17.89;92.32;95191.13;108066;1270;23231;-77
2022/09/15 06:14:06;;;;;;;2.70;1.60;;;;;;;18.19;92.73;95190.75;108081;1270;22539;-78
2022/09/15 06:16:37;;;;;;;2.10;1.70;;;;;;;18.21;91.71;95188.02;107992;1270;22700;-77
2022/09/15 06:19:09;;;;;;;2.40;1.60;;;;;;;18.12;91.75;95189.27;107922;1270;28753;-77
2022/09/15 06:21:40;;;;;;;2.60;1.60;;;;;;;18.08;91.96;95186.83;107963;1270;24035;-78
2022/09/15 06:24:13;;;;;;;1.60;1.30;;;;;;;18.12;92.40;95188.72;108070;1270;26577;-78
2022/09/15 06:26:45;;;;;;;1.70;1.60;;;;;;;18.25;92.80;95189.92;108042;1270;22549;-78
2022/09/15 06:29:16;;;;;;;2.10;1.60;;;;;;;18.30;91.99;95194.43;107930;1270;24739;-78
2022/09/15 06:31:48;;;;;;;2.10;1.60;;;;;;;18.25;91.22;95192.05;108046;1270;22555;-78
2022/09/15 06:34:19;;;;;;;2.50;1.80;;;;;;;18.37;92.08;95187.70;108093;1270;22661;-77
2022/09/15 06:36:51;;;;;;;2.60;1.50;;;;;;;19.44;93.33;95187.77;107988;1270;25372;-78
2022/09/15 06:39:24;;;;;;;1.50;1.40;;;;;;;20.05;90.03;95188.94;107942;1270;28654;-78
2022/09/15 06:41:55;;;;;;;2.00;1.70;;;;;;;19.94;87.87;95184.70;108048;1270;24265;-78
2022/09/15 06:44:27;;;;;;;2.30;1.50;;;;;;;19.57;85.25;95184.91;108081;1269;24275;-78
2022/09/15 06:46:58;;;;;;;1.50;1.40;;;;;;;19.23;85.64;95187.64;108050;1271;23878;-78
2022/09/15 06:49:30;;;;;;;2.60;1.40;;;;;;;19.08;85.47;95193.14;108028;1270;28219;-78
2022/09/15 06:52:03;;;;;;;2.00;1.70;;;;;;;19.12;86.06;95199.18;108058;1270;22611;-78
2022/09/15 06:54:35;;;;;;;3.10;1.80;;;;;;;19.80;87.39;95206.70;108067;1270;22549;-78
2022/09/15 06:57:06;;;;;;;2.60;1.50;;;;;;;20.39;85.53;95201.55;108023;1270;26395;-78
2022/09/15 06:59:38;;;;;;;1.80;1.50;;;;;;;20.25;83.67;95202.22;108042;1270;28768;-78
2022/09/15 07:02:14;;;;;;;3.70;2.00;;;;;;;20.22;83.46;95206.05;108077;1270;23172;-78
2022/09/15 07:04:45;;;;;;;2.10;1.60;;;;;;;20.94;84.28;95215.09;107882;1270;26558;-78
2022/09/15 07:07:17;;;;;;;2.70;1.60;;;;;;;21.37;82.83;95211.17;108019;1270;22541;-78
2022/09/15 07:09:48;;;;;;;2.60;1.70;;;;;;;21.97;79.09;95220.61;107971;1270;30580;-78
2022/09/15 07:12:19;;;;;;;2.00;1.50;;;;;;;21.65;76.59;95222.42;108009;1270;22553;-78
2022/09/15 07:14:50;;;;;;;2.50;1.70;;;;;;;21.57;77.07;95228.19;108060;1270;24244;-78
2022/09/15 07:17:21;;;;;;;2.20;1.40;;;;;;;21.31;77.28;95232.34;108015;1270;22551;-78
2022/09/15 07:19:53;;;;;;;2.40;1.90;;;;;;;21.03;76.74;95242.15;108003;1270;26800;-78
2022/09/15 07:22:24;;;;;;;3.30;1.50;;;;;;;20.81;77.48;95240.28;108101;1268;25299;-78
2022/09/15 07:24:55;;;;;;;1.40;1.20;;;;;;;20.63;77.01;95247.80;108015;1270;24384;-78
2022/09/15 07:27:30;;;;;;;1.90;1.60;;;;;;;20.32;77.33;95251.17;108090;1270;22549;-78
2022/09/15 07:30:02;;;;;;;2.70;1.90;;;;;;;20.16;78.03;95259.89;108014;1269;26046;-78
2022/09/15 07:32:33;;;;;;;2.40;1.70;;;;;;;20.08;78.64;95262.98;108099;1270;22587;-78
2022/09/15 07:35:05;;;;;;;2.20;1.50;;;;;;;19.92;78.47;95269.30;108074;1270;23864;-78
2022/09/15 07:37:37;;;;;;;1.60;1.50;;;;;;;19.61;79.06;95273.29;108027;1270;24418;-78
2022/09/15 07:40:10;;;;;;;1.90;1.50;;;;;;;19.37;79.59;95270.47;107987;1270;30789;-78
2022/09/15 07:42:45;;;;;;;4.50;1.60;;;;;;;19.15;80.54;95278.13;108095;1270;22791;-78
2022/09/15 07:45:16;;;;;;;1.70;1.60;;;;;;;19.00;81.03;95280.54;108071;1270;22552;-78
2022/09/15 07:47:47;;;;;;;2.60;1.70;;;;;;;18.87;81.72;95293.41;108080;1270;22706;-78
2022/09/15 07:50:18;;;;;;;1.90;1.60;;;;;;;18.76;82.24;95297.11;107999;1270;30455;-78
2022/09/15 07:52:54;;;;;;;3.20;1.80;;;;;;;18.68;82.76;95305.19;108045;1270;22552;-78
2022/09/15 07:55:26;;;;;;;2.80;1.50;;;;;;;18.64;83.32;95307.05;108096;1270;24208;-78
2022/09/15 07:58:01;;;;;;;1.80;1.50;;;;;;;18.61;83.71;95305.46;108056;1270;22698;-78
2022/09/15 08:00:32;;;;;;;2.20;1.90;;;;;;;18.56;83.89;95305.67;108030;1270;24927;-78
2022/09/15 08:03:06;;;;;;;4.20;1.70;;;;;;;18.52;84.17;95310.05;107995;1270;24231;-78
2022/09/15 08:05:37;;;;;;;1.80;1.60;;;;;;;18.52;84.45;95314.73;108078;1270;22538;-78
2022/09/15 08:08:09;;;;;;;2.70;1.70;;;;;;;18.52;84.78;95317.88;108098;1269;22552;-78
2022/09/15 08:10:42;;;;;;;1.90;1.70;;;;;;;18.48;84.83;95316.38;108012;1270;24407;-78
2022/09/15 08:13:13;;;;;;;2.20;1.50;;;;;;;18.44;84.92;95317.91;108080;1270;25914;-78
2022/09/15 08:15:45;;;;;;;2.70;1.30;;;;;;;18.47;84.95;95322.02;108089;1270;24027;-78
2022/09/15 08:18:16;;;;;;;3.00;1.30;;;;;;;18.45;85.06;95325.20;108078;1270;22538;-78
2022/09/15 08:20:48;;;;;;;1.60;1.10;;;;;;;18.42;84.68;95331.05;108100;1270;23910;-78
2022/09/15 08:23:20;;;;;;;1.80;1.10;;;;;;;18.38;83.63;95334.68;108110;1270;22565;-78
2022/09/15 08:25:52;;;;;;;1.00;0.80;;;;;;;18.36;83.29;95332.66;108080;1270;22561;-78
2022/09/15 08:28:24;;;;;;;1.40;0.80;;;;;;;18.34;83.20;95340.23;108021;1270;28184;-77
2022/09/15 08:31:02;;;;;;;0.70;0.60;;;;;;;18.32;83.26;95340.27;108097;1270;22526;-78
2022/09/15 08:33:34;;;;;;;1.20;0.60;;;;;;;18.31;82.83;95345.77;108058;1270;23817;-78
2022/09/15 08:36:10;;;;;;;1.10;0.80;;;;;;;18.31;83.01;95343.17;108078;1270;25256;-78
2022/09/15 08:38:43;;;;;;;1.00;0.70;;;;;;;18.34;83.10;95348.66;108058;1270;32749;-78
2022/09/15 08:41:19;;;;;;;1.60;0.80;;;;;;;18.38;83.09;95352.80;108083;1270;22564;-78
2022/09/15 08:43:58;;;;;;;1.00;0.90;;;;;;;18.45;83.18;95357.64;108039;1270;22548;-78
2022/09/15 08:46:36;;;;;;;1.00;0.70;;;;;;;18.52;82.97;95360.45;108051;1270;22552;-78
2022/09/15 08:49:15;;;;;;;1.10;0.90;;;;;;;18.50;82.92;95366.24;108013;1270;32299;-78
2022/09/15 08:51:49;;;;;;;1.00;0.90;;;;;;;18.44;82.98;95363.67;108125;1268;22526;-78
2022/09/15 08:54:25;;;;;;;0.90;0.80;;;;;;;18.36;83.20;95365.64;108096;1270;22526;-78
2022/09/15 08:56:57;;;;;;;0.90;0.70;;;;;;;18.27;83.33;95372.30;108118;1267;22541;-78
2022/09/15 08:59:32;;;;;;;1.20;0.80;;;;;;;18.19;83.93;95378.83;108030;1267;32534;-78
2022/09/15 09:02:38;;;;;;;1.00;0.80;;;;;;;18.10;84.35;95387.55;108100;1268;22568;-78
2022/09/15 09:05:19;;;;;;;1.20;1.10;;;;;;;18.00;84.95;95399.30;108063;1270;24839;-78
2022/09/15 09:08:05;;;;;;;2.10;1.30;;;;;;;17.94;85.36;95403.98;108132;1268;22539;-78
2022/09/15 09:10:45;;;;;;;1.60;1.40;;;;;;;17.83;85.92;95416.55;108080;1268;24425;-78
2022/09/15 09:13:28;;;;;;;2.70;2.50;;;;;;;17.74;86.35;95419.13;108081;1270;22615;-78
2022/09/15 09:16:11;;;;;;;2.40;2.20;;;;;;;17.57;87.29;95432.31;108106;1267;24064;-78
2022/09/15 09:19:18;;;;;;;3.70;2.30;;;;;;;17.36;88.52;95438.37;108073;1267;23819;-77
2022/09/15 09:21:54;;;;;;;2.80;2.50;;;;;;;17.16;90.07;95450.16;108111;1268;22975;-78
2022/09/15 09:24:34;;;;;;;2.90;2.70;;;;;;;16.99;91.04;95449.48;108100;1267;25489;-78
2022/09/15 09:27:11;;;;;;;3.00;2.70;;;;;;;16.87;92.07;95453.01;108111;1268;24235;-78
2022/09/15 09:29:48;;;;;;;4.60;3.40;;;;;;;16.78;92.94;95460.28;108017;1270;33536;-78
2022/09/15 09:32:24;;;;;;;4.40;3.60;;;;;;;16.70;93.58;95461.77;108073;1270;25250;-78
2022/09/15 09:35:05;;;;;;;4.20;3.00;;;;;;;16.64;93.91;95463.67;108081;1270;25219;-78
2022/09/15 09:37:40;;;;;;;4.20;2.80;;;;;;;16.61;94.39;95462.22;108080;1270;26408;-78
2022/09/15 09:40:14;;;;;;;3.10;2.50;;;;;;;16.59;94.58;95470.27;107929;1270;42645;-78
2022/09/15 09:42:46;;;;;;;2.30;2.10;;;;;;;16.51;95.18;95475.19;108107;1270;23888;-77
2022/09/15 09:45:19;;;;;;;4.60;2.80;;;;;;;16.42;95.63;95484.88;108062;1270;22568;-78
2022/09/15 09:47:53;;;;;;;2.20;2.00;;;;;;;16.40;95.20;95491.56;108075;1270;25377;-78
2022/09/15 09:50:44;;;;;;;2.50;2.10;;;;;;;16.43;95.04;95497.98;108041;1270;27103;-77
2022/09/15 09:53:24;;;;;;;1.90;1.70;;;;;;;16.26;94.42;95512.27;108022;1270;25255;-77
2022/09/15 09:56:13;;;;;;;1.70;1.50;;;;;;;16.16;94.58;95515.42;108083;1270;22672;-78
2022/09/15 09:58:44;;;;;;;2.10;1.70;;;;;;;16.09;94.41;95516.33;107948;1270;27221;-78
2022/09/15 10:01:17;;;;;;;1.50;1.40;;;;;;;16.08;94.56;95515.82;108082;1270;22637;-78
2022/09/15 10:03:48;;;;;;;1.60;1.50;;;;;;;16.10;94.40;95523.39;108035;1270;22589;-77
2022/09/15 10:06:22;;;;;;;1.90;1.40;;;;;;;16.14;94.18;95532.88;108109;1269;25368;-77
2022/09/15 10:08:58;;;;;;;1.50;1.40;;;;;;;16.09;93.78;95534.28;108039;1270;25487;-77
2022/09/15 10:11:45;;;;;;;1.40;1.30;;;;;;;16.07;93.84;95537.27;107986;1270;23259;-78
2022/09/15 10:14:26;;;;;;;1.70;1.50;;;;;;;16.12;93.76;95537.02;108093;1270;25878;-78
2022/09/15 10:17:04;;;;;;;1.20;1.10;;;;;;;16.20;93.49;95541.01;108076;1270;22621;-78
2022/09/15 10:19:44;;;;;;;2.00;1.30;;;;;;;16.22;93.02;95545.40;108005;1270;28924;-77
2022/09/15 10:22:26;;;;;;;1.30;1.20;;;;;;;16.15;92.77;95541.31;108075;1269;22549;-78
2022/09/15 10:24:57;;;;;;;1.40;1.00;;;;;;;16.02;92.66;95533.63;108104;1270;22547;-78
2022/09/15 10:27:34;;;;;;;1.50;1.40;;;;;;;15.98;93.06;95529.37;108107;1268;22542;-77
2022/09/15 10:30:18;;;;;;;1.80;1.30;;;;;;;15.86;93.11;95527.59;108028;1270;33098;-77
2022/09/15 10:32:50;;;;;;;2.40;1.40;;;;;;;15.87;93.62;95521.81;108035;1270;22599;-78
2022/09/15 10:35:23;;;;;;;1.20;1.10;;;;;;;15.95;93.72;95526.63;108011;1270;24035;-77
2022/09/15 10:38:04;;;;;;;0.90;0.90;;;;;;;16.10;93.87;95522.45;108068;1270;24381;-78
2022/09/15 10:40:44;;;;;;;1.20;1.00;;;;;;;16.34;93.92;95514.55;108093;1269;27523;-78
2022/09/15 10:43:28;;;;;;;1.20;1.00;;;;;;;16.58;93.91;95518.56;108112;1267;22529;-78
2022/09/15 10:46:04;;;;;;;1.30;1.20;;;;;;;16.76;93.25;95512.00;108121;1265;22569;-78
2022/09/15 10:48:57;;;;;;;1.70;1.40;;;;;;;16.92;93.09;95513.09;108044;1268;35460;-77
2022/09/15 10:51:42;;;;;;;1.40;1.30;;;;;;;17.12;92.46;95510.59;107927;1270;22546;-78
2022/09/15 10:54:44;;;;;;;1.50;1.20;;;;;;;17.26;91.86;95512.15;108025;1270;22628;-78
2022/09/15 10:57:30;;;;;;;1.50;1.10;;;;;;;17.21;89.88;95508.83;108041;1270;22517;-78
2022/09/15 11:00:06;;;;;;;1.40;1.00;;;;;;;17.19;89.83;95507.80;107957;1270;38208;-78
2022/09/15 11:02:57;;;;;;;1.40;1.10;;;;;;;17.12;89.48;95510.60;108078;1270;24248;-78
2022/09/15 11:05:51;;;;;;;1.30;1.20;;;;;;;17.12;89.35;95509.07;108078;1270;24104;-78
2022/09/15 11:08:47;;;;;;;2.00;1.20;;;;;;;17.04;89.11;95507.05;108017;1270;34850;-77
2022/09/15 11:11:22;;;;;;;1.00;1.00;;;;;;;16.90;88.42;95506.86;108093;1270;24470;-78
2022/09/15 11:14:07;;;;;;;0.90;0.90;;;;;;;16.75;88.78;95507.02;108105;1270;24180;-78
2022/09/15 11:16:51;;;;;;;2.00;1.30;;;;;;;16.76;89.28;95505.05;108081;1270;22630;-78
2022/09/15 11:19:47;;;;;;;1.60;0.90;;;;;;;16.77;89.40;95504.02;107978;1270;26213;-77
2022/09/15 11:22:24;;;;;;;1.40;1.20;;;;;;;16.76;89.38;95500.78;108022;1270;22530;-78
2022/09/15 11:24:59;;;;;;;1.40;1.30;;;;;;;16.81;89.48;95502.42;108017;1270;22527;-78
2022/09/15 11:27:36;;;;;;;1.50;1.20;;;;;;;16.85;89.12;95496.55;108031;1268;22613;-78
2022/09/15 11:30:16;;;;;;;1.40;0.80;;;;;;;16.86;88.21;95491.83;107963;1270;31198;-78
2022/09/15 11:32:52;;;;;;;2.20;1.30;;;;;;;16.87;87.75;95499.66;108024;1270;23819;-78
2022/09/15 11:35:37;;;;;;;1.30;1.10;;;;;;;16.93;87.68;95493.77;108030;1270;23157;-78
2022/09/15 11:38:27;;;;;;;1.50;1.40;;;;;;;17.10;87.81;95491.56;108033;1270;25377;-78
2022/09/15 11:41:14;;;;;;;1.90;1.20;;;;;;;17.22;87.60;95494.84;108036;1270;23130;-78
2022/09/15 11:43:55;;;;;;;1.30;1.10;;;;;;;17.27;87.29;95492.12;108043;1270;23705;-78
2022/09/15 11:46:43;;;;;;;1.90;1.10;;;;;;;17.31;87.28;95487.31;108018;1270;23110;-78
2022/09/15 11:49:20;;;;;;;1.10;1.00;;;;;;;17.35;87.06;95482.44;107999;1270;25875;-78
2022/09/15 11:51:57;;;;;;;1.90;1.10;;;;;;;17.45;87.70;95481.04;108013;1270;22542;-78
2022/09/15 11:54:37;;;;;;;1.20;1.00;;;;;;;17.63;87.82;95472.34;108065;1270;24272;-78
2022/09/15 11:57:18;;;;;;;1.80;1.60;;;;;;;17.76;87.05;95469.20;108028;1270;22561;-78
2022/09/15 11:59:56;;;;;;;3.00;1.20;;;;;;;17.88;86.93;95469.03;108060;1270;31379;-78
2022/09/15 12:02:31;;;;;;;1.30;1.20;;;;;;;17.98;86.85;95472.84;108069;1269;25031;-78